sensor_id;sensor_type;location;lat;lon;timestamp;P1;durP1;ratioP1;P2;durP2;ratioP2
7181;SDS011;3632;42.724;23.298;2022-10-26T00:01:59;9.83;;;6.57;;
7181;SDS011;3632;42.724;23.298;2022-10-26T00:04:26;13.87;;;7.13;;
7181;SDS011;3632;42.724;23.298;2022-10-26T00:06:52;10.43;;;5.83;;
7181;SDS011;3632;42.724;23.298;2022-10-26T00:09:19;12.93;;;6.57;;
7181;SDS011;3632;42.724;23.298;2022-10-26T00:11:46;15.70;;;6.50;;
7181;SDS011;3632;42.724;23.298;2022-10-26T00:14:12;13.07;;;6.53;;
7181;SDS011;3632;42.724;23.298;2022-10-26T00:16:39;9.50;;;5.97;;
7181;SDS011;3632;42.724;23.298;2022-10-26T00:19:07;10.80;;;6.10;;
7181;SDS011;3632;42.724;23.298;2022-10-26T00:21:34;9.30;;;6.13;;
7181;SDS011;3632;42.724;23.298;2022-10-26T00:24:01;12.00;;;6.93;;
7181;SDS011;3632;42.724;23.298;2022-10-26T00:26:28;13.30;;;7.17;;
7181;SDS011;3632;42.724;23.298;2022-10-26T00:28:55;15.23;;;7.13;;
7181;SDS011;3632;42.724;23.298;2022-10-26T00:31:22;12.60;;;6.47;;
7181;SDS011;3632;42.724;23.298;2022-10-26T00:33:51;11.40;;;6.63;;
7181;SDS011;3632;42.724;23.298;2022-10-26T00:36:20;9.73;;;6.00;;
7181;SDS011;3632;42.724;23.298;2022-10-26T00:38:47;11.67;;;6.83;;
7181;SDS011;3632;42.724;23.298;2022-10-26T00:41:15;12.93;;;7.10;;
7181;SDS011;3632;42.724;23.298;2022-10-26T00:43:43;9.80;;;6.50;;
7181;SDS011;3632;42.724;23.298;2022-10-26T00:46:11;11.00;;;6.07;;
7181;SDS011;3632;42.724;23.298;2022-10-26T00:48:41;12.80;;;7.30;;
7181;SDS011;3632;42.724;23.298;2022-10-26T00:51:13;12.70;;;6.63;;
7181;SDS011;3632;42.724;23.298;2022-10-26T00:53:47;13.20;;;7.27;;
7181;SDS011;3632;42.724;23.298;2022-10-26T00:56:14;15.67;;;7.57;;
7181;SDS011;3632;42.724;23.298;2022-10-26T00:58:42;14.00;;;7.60;;
7181;SDS011;3632;42.724;23.298;2022-10-26T01:01:10;10.30;;;6.90;;
7181;SDS011;3632;42.724;23.298;2022-10-26T01:03:37;14.67;;;7.10;;
7181;SDS011;3632;42.724;23.298;2022-10-26T01:06:04;16.27;;;7.37;;
7181;SDS011;3632;42.724;23.298;2022-10-26T01:08:31;10.07;;;6.83;;
7181;SDS011;3632;42.724;23.298;2022-10-26T01:11:00;11.03;;;6.63;;
7181;SDS011;3632;42.724;23.298;2022-10-26T01:13:27;9.57;;;6.43;;
7181;SDS011;3632;42.724;23.298;2022-10-26T01:16:00;13.03;;;6.67;;
7181;SDS011;3632;42.724;23.298;2022-10-26T01:18:38;11.90;;;6.73;;
7181;SDS011;3632;42.724;23.298;2022-10-26T01:21:13;10.97;;;6.80;;
7181;SDS011;3632;42.724;23.298;2022-10-26T01:24:01;11.47;;;6.90;;
7181;SDS011;3632;42.724;23.298;2022-10-26T01:26:56;10.80;;;6.33;;
7181;SDS011;3632;42.724;23.298;2022-10-26T01:32:37;12.33;;;7.00;;
7181;SDS011;3632;42.724;23.298;2022-10-26T01:35:11;13.17;;;7.07;;
7181;SDS011;3632;42.724;23.298;2022-10-26T01:37:44;11.63;;;6.70;;
7181;SDS011;3632;42.724;23.298;2022-10-26T01:40:15;14.57;;;6.80;;
7181;SDS011;3632;42.724;23.298;2022-10-26T01:42:46;11.77;;;6.53;;
7181;SDS011;3632;42.724;23.298;2022-10-26T01:45:18;12.50;;;7.23;;
7181;SDS011;3632;42.724;23.298;2022-10-26T01:47:46;12.40;;;7.07;;
7181;SDS011;3632;42.724;23.298;2022-10-26T01:50:14;12.37;;;7.10;;
7181;SDS011;3632;42.724;23.298;2022-10-26T01:52:43;14.23;;;6.67;;
7181;SDS011;3632;42.724;23.298;2022-10-26T01:58:14;9.53;;;7.07;;
7181;SDS011;3632;42.724;23.298;2022-10-26T02:00:56;10.77;;;7.40;;
7181;SDS011;3632;42.724;23.298;2022-10-26T02:03:32;16.97;;;7.93;;
7181;SDS011;3632;42.724;23.298;2022-10-26T02:06:10;17.80;;;7.57;;
7181;SDS011;3632;42.724;23.298;2022-10-26T02:08:51;11.27;;;7.43;;
7181;SDS011;3632;42.724;23.298;2022-10-26T02:11:27;15.87;;;6.90;;
7181;SDS011;3632;42.724;23.298;2022-10-26T02:14:04;12.67;;;7.53;;
7181;SDS011;3632;42.724;23.298;2022-10-26T02:16:39;10.80;;;7.70;;
7181;SDS011;3632;42.724;23.298;2022-10-26T02:19:18;12.90;;;7.40;;
7181;SDS011;3632;42.724;23.298;2022-10-26T02:21:55;14.77;;;8.20;;
7181;SDS011;3632;42.724;23.298;2022-10-26T02:24:25;11.13;;;6.80;;
7181;SDS011;3632;42.724;23.298;2022-10-26T02:26:54;9.70;;;6.10;;
7181;SDS011;3632;42.724;23.298;2022-10-26T02:29:23;11.17;;;6.70;;
7181;SDS011;3632;42.724;23.298;2022-10-26T02:31:53;11.20;;;6.13;;
7181;SDS011;3632;42.724;23.298;2022-10-26T02:34:21;11.77;;;6.33;;
7181;SDS011;3632;42.724;23.298;2022-10-26T02:36:52;13.43;;;7.23;;
7181;SDS011;3632;42.724;23.298;2022-10-26T02:39:23;13.77;;;6.70;;
7181;SDS011;3632;42.724;23.298;2022-10-26T02:41:52;10.00;;;6.70;;
7181;SDS011;3632;42.724;23.298;2022-10-26T02:44:22;11.27;;;6.90;;
7181;SDS011;3632;42.724;23.298;2022-10-26T02:46:53;13.20;;;7.23;;
7181;SDS011;3632;42.724;23.298;2022-10-26T02:49:21;10.90;;;6.53;;
7181;SDS011;3632;42.724;23.298;2022-10-26T02:51:48;18.57;;;8.30;;
7181;SDS011;3632;42.724;23.298;2022-10-26T02:54:18;15.47;;;8.20;;
7181;SDS011;3632;42.724;23.298;2022-10-26T02:56:53;13.23;;;6.90;;
7181;SDS011;3632;42.724;23.298;2022-10-26T02:59:23;17.03;;;8.13;;
7181;SDS011;3632;42.724;23.298;2022-10-26T03:01:55;21.60;;;7.53;;
7181;SDS011;3632;42.724;23.298;2022-10-26T03:04:27;10.67;;;7.40;;
7181;SDS011;3632;42.724;23.298;2022-10-26T03:06:55;12.37;;;6.93;;
7181;SDS011;3632;42.724;23.298;2022-10-26T03:09:21;11.17;;;7.23;;
7181;SDS011;3632;42.724;23.298;2022-10-26T03:11:48;11.70;;;7.60;;
7181;SDS011;3632;42.724;23.298;2022-10-26T03:14:15;10.90;;;7.07;;
7181;SDS011;3632;42.724;23.298;2022-10-26T03:16:42;13.77;;;7.60;;
7181;SDS011;3632;42.724;23.298;2022-10-26T03:19:10;10.87;;;8.10;;
7181;SDS011;3632;42.724;23.298;2022-10-26T03:21:37;11.17;;;7.20;;
7181;SDS011;3632;42.724;23.298;2022-10-26T03:24:06;12.20;;;7.57;;
7181;SDS011;3632;42.724;23.298;2022-10-26T03:26:34;12.97;;;8.90;;
7181;SDS011;3632;42.724;23.298;2022-10-26T03:29:01;17.93;;;8.40;;
7181;SDS011;3632;42.724;23.298;2022-10-26T03:31:28;10.27;;;7.73;;
7181;SDS011;3632;42.724;23.298;2022-10-26T03:33:55;14.87;;;8.57;;
7181;SDS011;3632;42.724;23.298;2022-10-26T03:36:23;14.93;;;8.53;;
7181;SDS011;3632;42.724;23.298;2022-10-26T03:38:50;14.10;;;8.40;;
7181;SDS011;3632;42.724;23.298;2022-10-26T03:41:17;14.10;;;8.70;;
7181;SDS011;3632;42.724;23.298;2022-10-26T03:43:44;14.93;;;9.17;;
7181;SDS011;3632;42.724;23.298;2022-10-26T03:46:10;15.97;;;8.23;;
7181;SDS011;3632;42.724;23.298;2022-10-26T03:48:37;14.53;;;8.33;;
7181;SDS011;3632;42.724;23.298;2022-10-26T03:51:04;14.30;;;7.97;;
7181;SDS011;3632;42.724;23.298;2022-10-26T03:53:32;12.23;;;7.67;;
7181;SDS011;3632;42.724;23.298;2022-10-26T03:55:59;12.00;;;7.83;;
7181;SDS011;3632;42.724;23.298;2022-10-26T03:58:26;13.50;;;8.10;;
7181;SDS011;3632;42.724;23.298;2022-10-26T04:00:52;13.20;;;7.93;;
7181;SDS011;3632;42.724;23.298;2022-10-26T04:03:19;11.33;;;7.70;;
7181;SDS011;3632;42.724;23.298;2022-10-26T04:05:46;17.03;;;8.53;;
7181;SDS011;3632;42.724;23.298;2022-10-26T04:08:13;16.37;;;7.73;;
7181;SDS011;3632;42.724;23.298;2022-10-26T04:10:41;16.57;;;8.60;;
7181;SDS011;3632;42.724;23.298;2022-10-26T04:13:08;13.70;;;7.73;;
7181;SDS011;3632;42.724;23.298;2022-10-26T04:15:36;11.97;;;8.00;;
7181;SDS011;3632;42.724;23.298;2022-10-26T04:18:03;15.00;;;7.63;;
7181;SDS011;3632;42.724;23.298;2022-10-26T04:20:32;15.53;;;8.10;;
7181;SDS011;3632;42.724;23.298;2022-10-26T04:23:01;11.80;;;7.87;;
7181;SDS011;3632;42.724;23.298;2022-10-26T04:25:30;10.07;;;6.93;;
7181;SDS011;3632;42.724;23.298;2022-10-26T04:27:59;12.93;;;7.57;;
7181;SDS011;3632;42.724;23.298;2022-10-26T04:30:27;10.73;;;7.80;;
7181;SDS011;3632;42.724;23.298;2022-10-26T04:32:54;10.33;;;8.00;;
7181;SDS011;3632;42.724;23.298;2022-10-26T04:35:20;11.13;;;8.17;;
7181;SDS011;3632;42.724;23.298;2022-10-26T04:37:47;14.47;;;8.13;;
7181;SDS011;3632;42.724;23.298;2022-10-26T04:40:14;15.73;;;8.40;;
7181;SDS011;3632;42.724;23.298;2022-10-26T04:42:42;10.47;;;7.57;;
7181;SDS011;3632;42.724;23.298;2022-10-26T04:45:11;14.10;;;7.70;;
7181;SDS011;3632;42.724;23.298;2022-10-26T04:47:39;13.33;;;7.97;;
7181;SDS011;3632;42.724;23.298;2022-10-26T04:50:06;11.37;;;7.47;;
7181;SDS011;3632;42.724;23.298;2022-10-26T04:52:34;10.53;;;7.63;;
7181;SDS011;3632;42.724;23.298;2022-10-26T04:55:01;11.27;;;7.57;;
7181;SDS011;3632;42.724;23.298;2022-10-26T04:57:30;11.83;;;8.17;;
7181;SDS011;3632;42.724;23.298;2022-10-26T04:59:57;14.17;;;8.40;;
7181;SDS011;3632;42.724;23.298;2022-10-26T05:02:26;13.73;;;7.70;;
7181;SDS011;3632;42.724;23.298;2022-10-26T05:04:53;13.43;;;7.47;;
7181;SDS011;3632;42.724;23.298;2022-10-26T05:07:20;14.17;;;8.27;;
7181;SDS011;3632;42.724;23.298;2022-10-26T05:09:47;15.70;;;7.87;;
7181;SDS011;3632;42.724;23.298;2022-10-26T05:12:13;18.07;;;7.80;;
7181;SDS011;3632;42.724;23.298;2022-10-26T05:14:40;14.20;;;8.57;;
7181;SDS011;3632;42.724;23.298;2022-10-26T05:17:07;12.50;;;8.37;;
7181;SDS011;3632;42.724;23.298;2022-10-26T05:19:35;16.27;;;7.90;;
7181;SDS011;3632;42.724;23.298;2022-10-26T05:22:02;17.80;;;8.97;;
7181;SDS011;3632;42.724;23.298;2022-10-26T05:24:29;15.60;;;9.20;;
7181;SDS011;3632;42.724;23.298;2022-10-26T05:26:56;18.13;;;9.50;;
7181;SDS011;3632;42.724;23.298;2022-10-26T05:29:22;18.13;;;10.10;;
7181;SDS011;3632;42.724;23.298;2022-10-26T05:31:49;14.17;;;9.40;;
7181;SDS011;3632;42.724;23.298;2022-10-26T05:34:16;14.90;;;8.63;;
7181;SDS011;3632;42.724;23.298;2022-10-26T05:36:44;15.60;;;8.37;;
7181;SDS011;3632;42.724;23.298;2022-10-26T05:39:11;13.80;;;8.80;;
7181;SDS011;3632;42.724;23.298;2022-10-26T05:41:38;14.73;;;10.90;;
7181;SDS011;3632;42.724;23.298;2022-10-26T05:44:04;17.53;;;10.13;;
7181;SDS011;3632;42.724;23.298;2022-10-26T05:46:31;14.57;;;9.00;;
7181;SDS011;3632;42.724;23.298;2022-10-26T05:48:58;14.30;;;9.03;;
7181;SDS011;3632;42.724;23.298;2022-10-26T05:51:25;17.43;;;8.90;;
7181;SDS011;3632;42.724;23.298;2022-10-26T05:53:53;16.40;;;9.13;;
7181;SDS011;3632;42.724;23.298;2022-10-26T05:56:23;16.40;;;9.30;;
7181;SDS011;3632;42.724;23.298;2022-10-26T05:59:00;18.00;;;8.73;;
7181;SDS011;3632;42.724;23.298;2022-10-26T06:01:28;17.10;;;9.37;;
7181;SDS011;3632;42.724;23.298;2022-10-26T06:04:11;15.90;;;10.33;;
7181;SDS011;3632;42.724;23.298;2022-10-26T06:06:47;17.73;;;9.47;;
7181;SDS011;3632;42.724;23.298;2022-10-26T06:09:20;20.20;;;9.77;;
7181;SDS011;3632;42.724;23.298;2022-10-26T06:11:48;15.43;;;10.00;;
7181;SDS011;3632;42.724;23.298;2022-10-26T06:14:18;19.37;;;10.30;;
7181;SDS011;3632;42.724;23.298;2022-10-26T06:16:49;20.53;;;10.47;;
7181;SDS011;3632;42.724;23.298;2022-10-26T06:19:32;13.43;;;9.00;;
7181;SDS011;3632;42.724;23.298;2022-10-26T06:22:13;19.13;;;13.60;;
7181;SDS011;3632;42.724;23.298;2022-10-26T06:24:55;19.63;;;14.03;;
7181;SDS011;3632;42.724;23.298;2022-10-26T06:27:31;15.07;;;9.53;;
7181;SDS011;3632;42.724;23.298;2022-10-26T06:30:06;13.63;;;9.60;;
7181;SDS011;3632;42.724;23.298;2022-10-26T06:32:35;15.07;;;9.30;;
7181;SDS011;3632;42.724;23.298;2022-10-26T06:35:08;13.33;;;9.50;;
7181;SDS011;3632;42.724;23.298;2022-10-26T06:37:44;13.00;;;8.37;;
7181;SDS011;3632;42.724;23.298;2022-10-26T06:40:13;15.00;;;8.43;;
7181;SDS011;3632;42.724;23.298;2022-10-26T06:42:42;19.57;;;9.27;;
7181;SDS011;3632;42.724;23.298;2022-10-26T06:45:10;14.03;;;8.07;;
7181;SDS011;3632;42.724;23.298;2022-10-26T06:47:39;13.67;;;9.37;;
7181;SDS011;3632;42.724;23.298;2022-10-26T06:50:14;16.83;;;10.37;;
7181;SDS011;3632;42.724;23.298;2022-10-26T06:52:53;19.13;;;9.90;;
7181;SDS011;3632;42.724;23.298;2022-10-26T06:55:33;17.10;;;10.07;;
7181;SDS011;3632;42.724;23.298;2022-10-26T06:58:07;15.67;;;9.40;;
7181;SDS011;3632;42.724;23.298;2022-10-26T07:00:38;12.13;;;8.80;;
7181;SDS011;3632;42.724;23.298;2022-10-26T07:03:06;13.50;;;10.00;;
7181;SDS011;3632;42.724;23.298;2022-10-26T07:05:33;15.93;;;8.53;;
7181;SDS011;3632;42.724;23.298;2022-10-26T07:08:00;15.33;;;9.30;;
7181;SDS011;3632;42.724;23.298;2022-10-26T07:10:27;14.60;;;9.40;;
7181;SDS011;3632;42.724;23.298;2022-10-26T07:12:55;11.90;;;9.07;;
7181;SDS011;3632;42.724;23.298;2022-10-26T07:15:22;13.97;;;11.10;;
7181;SDS011;3632;42.724;23.298;2022-10-26T07:17:48;11.53;;;8.60;;
7181;SDS011;3632;42.724;23.298;2022-10-26T07:20:16;16.77;;;9.20;;
7181;SDS011;3632;42.724;23.298;2022-10-26T07:22:43;13.83;;;11.47;;
7181;SDS011;3632;42.724;23.298;2022-10-26T07:25:10;14.10;;;10.23;;
7181;SDS011;3632;42.724;23.298;2022-10-26T07:27:38;14.00;;;7.90;;
7181;SDS011;3632;42.724;23.298;2022-10-26T07:30:07;12.60;;;8.10;;
7181;SDS011;3632;42.724;23.298;2022-10-26T07:32:35;11.33;;;8.77;;
7181;SDS011;3632;42.724;23.298;2022-10-26T07:35:01;10.70;;;6.87;;
7181;SDS011;3632;42.724;23.298;2022-10-26T07:37:28;13.10;;;8.03;;
7181;SDS011;3632;42.724;23.298;2022-10-26T07:39:55;10.17;;;7.47;;
7181;SDS011;3632;42.724;23.298;2022-10-26T07:42:22;11.70;;;7.90;;
7181;SDS011;3632;42.724;23.298;2022-10-26T07:44:49;13.03;;;8.63;;
7181;SDS011;3632;42.724;23.298;2022-10-26T07:47:17;9.97;;;7.33;;
7181;SDS011;3632;42.724;23.298;2022-10-26T07:49:44;10.03;;;7.37;;
7181;SDS011;3632;42.724;23.298;2022-10-26T07:52:11;14.33;;;8.50;;
7181;SDS011;3632;42.724;23.298;2022-10-26T07:54:38;10.83;;;8.00;;
7181;SDS011;3632;42.724;23.298;2022-10-26T07:57:05;9.77;;;6.33;;
7181;SDS011;3632;42.724;23.298;2022-10-26T07:59:31;8.13;;;5.50;;
7181;SDS011;3632;42.724;23.298;2022-10-26T08:01:58;12.13;;;7.83;;
7181;SDS011;3632;42.724;23.298;2022-10-26T08:04:26;11.30;;;9.00;;
7181;SDS011;3632;42.724;23.298;2022-10-26T08:06:53;9.70;;;5.53;;
7181;SDS011;3632;42.724;23.298;2022-10-26T08:09:20;9.60;;;5.90;;
7181;SDS011;3632;42.724;23.298;2022-10-26T08:11:46;12.00;;;7.47;;
7181;SDS011;3632;42.724;23.298;2022-10-26T08:14:13;10.80;;;6.03;;
7181;SDS011;3632;42.724;23.298;2022-10-26T08:16:40;8.70;;;5.73;;
7181;SDS011;3632;42.724;23.298;2022-10-26T08:19:07;7.07;;;5.37;;
7181;SDS011;3632;42.724;23.298;2022-10-26T08:21:35;13.13;;;8.20;;
7181;SDS011;3632;42.724;23.298;2022-10-26T08:24:02;9.77;;;6.73;;
7181;SDS011;3632;42.724;23.298;2022-10-26T08:26:28;9.10;;;6.13;;
7181;SDS011;3632;42.724;23.298;2022-10-26T08:28:55;7.00;;;5.00;;
7181;SDS011;3632;42.724;23.298;2022-10-26T08:31:22;16.03;;;13.00;;
7181;SDS011;3632;42.724;23.298;2022-10-26T08:33:49;7.27;;;4.57;;
7181;SDS011;3632;42.724;23.298;2022-10-26T08:36:16;6.37;;;4.20;;
7181;SDS011;3632;42.724;23.298;2022-10-26T08:38:49;11.20;;;7.70;;
7181;SDS011;3632;42.724;23.298;2022-10-26T08:41:16;10.00;;;5.10;;
7181;SDS011;3632;42.724;23.298;2022-10-26T08:43:46;6.57;;;3.87;;
7181;SDS011;3632;42.724;23.298;2022-10-26T08:46:19;10.83;;;6.50;;
7181;SDS011;3632;42.724;23.298;2022-10-26T08:48:49;9.40;;;4.90;;
7181;SDS011;3632;42.724;23.298;2022-10-26T08:51:21;20.67;;;11.07;;
7181;SDS011;3632;42.724;23.298;2022-10-26T08:53:53;9.33;;;4.77;;
7181;SDS011;3632;42.724;23.298;2022-10-26T08:56:24;6.20;;;4.27;;
7181;SDS011;3632;42.724;23.298;2022-10-26T08:58:54;6.30;;;4.43;;
7181;SDS011;3632;42.724;23.298;2022-10-26T09:01:24;8.13;;;5.00;;
7181;SDS011;3632;42.724;23.298;2022-10-26T09:03:51;8.33;;;4.63;;
7181;SDS011;3632;42.724;23.298;2022-10-26T09:06:20;9.83;;;6.40;;
7181;SDS011;3632;42.724;23.298;2022-10-26T09:08:58;9.27;;;3.57;;
7181;SDS011;3632;42.724;23.298;2022-10-26T09:11:39;14.27;;;6.40;;
7181;SDS011;3632;42.724;23.298;2022-10-26T09:14:18;5.27;;;3.00;;
7181;SDS011;3632;42.724;23.298;2022-10-26T09:16:54;6.20;;;3.60;;
7181;SDS011;3632;42.724;23.298;2022-10-26T09:19:33;3.90;;;3.10;;
7181;SDS011;3632;42.724;23.298;2022-10-26T09:22:10;5.63;;;3.00;;
7181;SDS011;3632;42.724;23.298;2022-10-26T09:24:46;5.40;;;3.23;;
7181;SDS011;3632;42.724;23.298;2022-10-26T09:27:18;7.33;;;3.50;;
7181;SDS011;3632;42.724;23.298;2022-10-26T09:29:49;9.13;;;4.03;;
7181;SDS011;3632;42.724;23.298;2022-10-26T09:32:17;10.67;;;6.23;;
7181;SDS011;3632;42.724;23.298;2022-10-26T09:34:47;12.53;;;8.83;;
7181;SDS011;3632;42.724;23.298;2022-10-26T09:37:17;5.57;;;4.37;;
7181;SDS011;3632;42.724;23.298;2022-10-26T09:39:51;5.43;;;3.00;;
7181;SDS011;3632;42.724;23.298;2022-10-26T09:42:25;7.07;;;4.03;;
7181;SDS011;3632;42.724;23.298;2022-10-26T09:44:59;9.67;;;5.47;;
7181;SDS011;3632;42.724;23.298;2022-10-26T09:47:32;8.53;;;4.80;;
7181;SDS011;3632;42.724;23.298;2022-10-26T09:50:03;4.97;;;3.40;;
7181;SDS011;3632;42.724;23.298;2022-10-26T09:52:40;9.20;;;3.37;;
7181;SDS011;3632;42.724;23.298;2022-10-26T09:55:10;5.40;;;2.90;;
7181;SDS011;3632;42.724;23.298;2022-10-26T09:57:38;7.67;;;4.80;;
7181;SDS011;3632;42.724;23.298;2022-10-26T10:00:11;6.27;;;5.03;;
7181;SDS011;3632;42.724;23.298;2022-10-26T10:02:40;4.13;;;3.40;;
7181;SDS011;3632;42.724;23.298;2022-10-26T10:05:22;22.83;;;4.20;;
7181;SDS011;3632;42.724;23.298;2022-10-26T10:07:50;74.23;;;8.57;;
7181;SDS011;3632;42.724;23.298;2022-10-26T10:10:19;6.40;;;4.00;;
7181;SDS011;3632;42.724;23.298;2022-10-26T10:12:48;4.50;;;3.03;;
7181;SDS011;3632;42.724;23.298;2022-10-26T10:15:17;7.90;;;5.40;;
7181;SDS011;3632;42.724;23.298;2022-10-26T10:17:46;5.87;;;3.57;;
7181;SDS011;3632;42.724;23.298;2022-10-26T10:20:17;5.87;;;2.50;;
7181;SDS011;3632;42.724;23.298;2022-10-26T10:22:53;8.27;;;5.40;;
7181;SDS011;3632;42.724;23.298;2022-10-26T10:25:25;4.83;;;2.93;;
7181;SDS011;3632;42.724;23.298;2022-10-26T10:28:00;4.10;;;3.37;;
7181;SDS011;3632;42.724;23.298;2022-10-26T10:30:28;6.37;;;3.60;;
7181;SDS011;3632;42.724;23.298;2022-10-26T10:33:03;3.93;;;2.83;;
7181;SDS011;3632;42.724;23.298;2022-10-26T10:35:32;7.43;;;3.93;;
7181;SDS011;3632;42.724;23.298;2022-10-26T10:37:59;4.03;;;2.93;;
7181;SDS011;3632;42.724;23.298;2022-10-26T10:40:28;3.63;;;1.90;;
7181;SDS011;3632;42.724;23.298;2022-10-26T10:43:03;6.27;;;2.40;;
7181;SDS011;3632;42.724;23.298;2022-10-26T10:45:32;3.83;;;2.20;;
7181;SDS011;3632;42.724;23.298;2022-10-26T10:48:02;4.90;;;2.40;;
7181;SDS011;3632;42.724;23.298;2022-10-26T10:50:38;7.00;;;2.53;;
7181;SDS011;3632;42.724;23.298;2022-10-26T10:53:18;5.43;;;2.70;;
7181;SDS011;3632;42.724;23.298;2022-10-26T10:55:54;6.80;;;3.23;;
7181;SDS011;3632;42.724;23.298;2022-10-26T10:58:32;3.40;;;2.30;;
7181;SDS011;3632;42.724;23.298;2022-10-26T11:01:06;4.87;;;2.17;;
7181;SDS011;3632;42.724;23.298;2022-10-26T11:03:42;4.23;;;2.00;;
7181;SDS011;3632;42.724;23.298;2022-10-26T11:06:19;2.97;;;1.90;;
7181;SDS011;3632;42.724;23.298;2022-10-26T11:08:50;5.47;;;2.70;;
7181;SDS011;3632;42.724;23.298;2022-10-26T11:11:24;4.07;;;1.90;;
7181;SDS011;3632;42.724;23.298;2022-10-26T11:13:54;3.37;;;2.20;;
7181;SDS011;3632;42.724;23.298;2022-10-26T11:16:29;3.90;;;2.10;;
7181;SDS011;3632;42.724;23.298;2022-10-26T11:18:59;8.00;;;2.83;;
7181;SDS011;3632;42.724;23.298;2022-10-26T11:21:31;5.33;;;3.07;;
7181;SDS011;3632;42.724;23.298;2022-10-26T11:24:03;5.33;;;4.43;;
7181;SDS011;3632;42.724;23.298;2022-10-26T11:26:41;6.37;;;1.90;;
7181;SDS011;3632;42.724;23.298;2022-10-26T11:32:04;3.00;;;1.50;;
7181;SDS011;3632;42.724;23.298;2022-10-26T11:34:39;6.30;;;3.70;;
7181;SDS011;3632;42.724;23.298;2022-10-26T11:37:14;4.50;;;3.57;;
7181;SDS011;3632;42.724;23.298;2022-10-26T11:39:57;3.88;;;2.40;;
7181;SDS011;3632;42.724;23.298;2022-10-26T11:42:30;1.63;;;1.37;;
7181;SDS011;3632;42.724;23.298;2022-10-26T11:45:02;2.47;;;1.58;;
7181;SDS011;3632;42.724;23.298;2022-10-26T11:47:38;1.67;;;1.58;;
7181;SDS011;3632;42.724;23.298;2022-10-26T11:50:12;2.65;;;1.83;;
7181;SDS011;3632;42.724;23.298;2022-10-26T11:52:44;3.13;;;1.83;;
7181;SDS011;3632;42.724;23.298;2022-10-26T11:55:14;4.22;;;1.75;;
7181;SDS011;3632;42.724;23.298;2022-10-26T11:57:44;1.80;;;1.65;;
7181;SDS011;3632;42.724;23.298;2022-10-26T12:00:13;2.95;;;1.55;;
7181;SDS011;3632;42.724;23.298;2022-10-26T12:02:43;3.53;;;1.60;;
7181;SDS011;3632;42.724;23.298;2022-10-26T12:05:21;2.03;;;1.20;;
7181;SDS011;3632;42.724;23.298;2022-10-26T12:07:52;2.80;;;1.60;;
7181;SDS011;3632;42.724;23.298;2022-10-26T12:10:23;3.72;;;2.10;;
7181;SDS011;3632;42.724;23.298;2022-10-26T12:12:56;2.85;;;1.60;;
7181;SDS011;3632;42.724;23.298;2022-10-26T12:15:31;2.90;;;1.92;;
7181;SDS011;3632;42.724;23.298;2022-10-26T12:18:09;1.98;;;1.23;;
7181;SDS011;3632;42.724;23.298;2022-10-26T12:23:33;2.85;;;1.70;;
7181;SDS011;3632;42.724;23.298;2022-10-26T12:35:28;4.95;;;1.60;;
7181;SDS011;3632;42.724;23.298;2022-10-26T12:41:21;5.47;;;2.47;;
7181;SDS011;3632;42.724;23.298;2022-10-26T12:43:51;3.42;;;2.38;;
7181;SDS011;3632;42.724;23.298;2022-10-26T12:52:06;2.40;;;2.20;;
7181;SDS011;3632;42.724;23.298;2022-10-26T12:54:44;4.80;;;3.40;;
7181;SDS011;3632;42.724;23.298;2022-10-26T12:57:23;5.18;;;4.57;;
7181;SDS011;3632;42.724;23.298;2022-10-26T12:59:56;7.40;;;5.60;;
7181;SDS011;3632;42.724;23.298;2022-10-26T13:02:44;7.95;;;5.25;;
7181;SDS011;3632;42.724;23.298;2022-10-26T13:05:35;6.18;;;5.07;;
7181;SDS011;3632;42.724;23.298;2022-10-26T13:08:23;3.65;;;3.28;;
7181;SDS011;3632;42.724;23.298;2022-10-26T13:10:59;5.22;;;3.50;;
7181;SDS011;3632;42.724;23.298;2022-10-26T13:13:28;4.25;;;3.72;;
7181;SDS011;3632;42.724;23.298;2022-10-26T13:15:57;4.45;;;2.53;;
7181;SDS011;3632;42.724;23.298;2022-10-26T13:18:28;4.63;;;2.40;;
7181;SDS011;3632;42.724;23.298;2022-10-26T13:21:06;2.53;;;2.22;;
7181;SDS011;3632;42.724;23.298;2022-10-26T13:23:37;3.45;;;1.88;;
7181;SDS011;3632;42.724;23.298;2022-10-26T13:26:07;3.95;;;2.55;;
7181;SDS011;3632;42.724;23.298;2022-10-26T13:28:47;4.35;;;3.95;;
7181;SDS011;3632;42.724;23.298;2022-10-26T13:34:23;3.78;;;2.90;;
7181;SDS011;3632;42.724;23.298;2022-10-26T13:36:56;5.13;;;4.38;;
7181;SDS011;3632;42.724;23.298;2022-10-26T13:39:29;4.47;;;2.90;;
7181;SDS011;3632;42.724;23.298;2022-10-26T13:41:58;2.28;;;1.20;;
7181;SDS011;3632;42.724;23.298;2022-10-26T13:44:27;1.42;;;1.15;;
7181;SDS011;3632;42.724;23.298;2022-10-26T13:47:00;4.53;;;3.90;;
7181;SDS011;3632;42.724;23.298;2022-10-26T13:49:32;4.75;;;2.40;;
7181;SDS011;3632;42.724;23.298;2022-10-26T13:52:02;2.83;;;1.98;;
7181;SDS011;3632;42.724;23.298;2022-10-26T13:54:34;3.13;;;1.90;;
7181;SDS011;3632;42.724;23.298;2022-10-26T13:57:09;3.13;;;1.33;;
7181;SDS011;3632;42.724;23.298;2022-10-26T13:59:41;1.63;;;1.50;;
7181;SDS011;3632;42.724;23.298;2022-10-26T14:02:17;3.72;;;1.85;;
7181;SDS011;3632;42.724;23.298;2022-10-26T14:04:50;2.72;;;1.40;;
7181;SDS011;3632;42.724;23.298;2022-10-26T14:07:19;1.60;;;1.10;;
7181;SDS011;3632;42.724;23.298;2022-10-26T14:09:52;3.50;;;1.70;;
7181;SDS011;3632;42.724;23.298;2022-10-26T14:12:20;2.30;;;1.50;;
7181;SDS011;3632;42.724;23.298;2022-10-26T14:14:47;3.30;;;1.70;;
7181;SDS011;3632;42.724;23.298;2022-10-26T14:17:17;2.17;;;1.67;;
7181;SDS011;3632;42.724;23.298;2022-10-26T14:19:45;4.93;;;1.90;;
7181;SDS011;3632;42.724;23.298;2022-10-26T14:22:18;8.10;;;1.83;;
7181;SDS011;3632;42.724;23.298;2022-10-26T14:24:51;3.87;;;1.67;;
7181;SDS011;3632;42.724;23.298;2022-10-26T14:27:20;3.33;;;1.40;;
7181;SDS011;3632;42.724;23.298;2022-10-26T14:29:49;4.07;;;1.50;;
7181;SDS011;3632;42.724;23.298;2022-10-26T14:32:25;5.13;;;1.77;;
7181;SDS011;3632;42.724;23.298;2022-10-26T14:34:53;5.70;;;1.90;;
7181;SDS011;3632;42.724;23.298;2022-10-26T14:37:28;6.37;;;2.00;;
7181;SDS011;3632;42.724;23.298;2022-10-26T14:40:02;5.37;;;2.00;;
7181;SDS011;3632;42.724;23.298;2022-10-26T14:42:30;5.20;;;1.87;;
7181;SDS011;3632;42.724;23.298;2022-10-26T14:44:59;3.73;;;1.43;;
7181;SDS011;3632;42.724;23.298;2022-10-26T14:47:27;5.43;;;2.00;;
7181;SDS011;3632;42.724;23.298;2022-10-26T14:49:55;11.43;;;6.47;;
7181;SDS011;3632;42.724;23.298;2022-10-26T14:52:23;9.80;;;2.73;;
7181;SDS011;3632;42.724;23.298;2022-10-26T14:54:58;7.97;;;4.60;;
7181;SDS011;3632;42.724;23.298;2022-10-26T14:57:29;10.30;;;6.27;;
7181;SDS011;3632;42.724;23.298;2022-10-26T14:59:59;4.30;;;3.23;;
7181;SDS011;3632;42.724;23.298;2022-10-26T15:02:27;5.60;;;2.80;;
7181;SDS011;3632;42.724;23.298;2022-10-26T15:04:58;4.50;;;2.47;;
7181;SDS011;3632;42.724;23.298;2022-10-26T15:07:34;6.13;;;3.57;;
7181;SDS011;3632;42.724;23.298;2022-10-26T15:10:04;4.70;;;3.50;;
7181;SDS011;3632;42.724;23.298;2022-10-26T15:12:31;7.70;;;3.27;;
7181;SDS011;3632;42.724;23.298;2022-10-26T15:15:06;8.17;;;3.20;;
7181;SDS011;3632;42.724;23.298;2022-10-26T15:17:40;5.37;;;3.50;;
7181;SDS011;3632;42.724;23.298;2022-10-26T15:20:14;6.90;;;3.90;;
7181;SDS011;3632;42.724;23.298;2022-10-26T15:22:48;7.80;;;4.30;;
7181;SDS011;3632;42.724;23.298;2022-10-26T15:25:17;5.17;;;3.63;;
7181;SDS011;3632;42.724;23.298;2022-10-26T15:27:47;5.87;;;3.10;;
7181;SDS011;3632;42.724;23.298;2022-10-26T15:30:16;5.63;;;3.90;;
7181;SDS011;3632;42.724;23.298;2022-10-26T15:32:46;9.10;;;3.10;;
7181;SDS011;3632;42.724;23.298;2022-10-26T15:35:29;7.93;;;3.90;;
7181;SDS011;3632;42.724;23.298;2022-10-26T15:37:58;21.23;;;4.83;;
7181;SDS011;3632;42.724;23.298;2022-10-26T15:40:26;12.73;;;6.13;;
7181;SDS011;3632;42.724;23.298;2022-10-26T15:42:55;12.47;;;7.17;;
7181;SDS011;3632;42.724;23.298;2022-10-26T15:45:25;13.33;;;7.73;;
7181;SDS011;3632;42.724;23.298;2022-10-26T15:47:54;18.03;;;8.03;;